sensor_id;sensor_type;location;lat;lon;timestamp;P1;durP1;ratioP1;P2;durP2;ratioP2
22024;SDS011;11176;51.448;6.650;2023-05-09T00:01:09;8.52;;;7.63;;
22024;SDS011;11176;51.448;6.650;2023-05-09T00:03:38;10.60;;;7.82;;
22024;SDS011;11176;51.448;6.650;2023-05-09T00:06:05;9.90;;;8.45;;
22024;SDS011;11176;51.448;6.650;2023-05-09T00:08:32;11.27;;;8.30;;
22024;SDS011;11176;51.448;6.650;2023-05-09T00:10:58;11.68;;;8.68;;
22024;SDS011;11176;51.448;6.650;2023-05-09T00:13:26;11.52;;;8.68;;
22024;SDS011;11176;51.448;6.650;2023-05-09T00:15:52;10.10;;;8.68;;
22024;SDS011;11176;51.448;6.650;2023-05-09T00:18:19;10.32;;;8.95;;
22024;SDS011;11176;51.448;6.650;2023-05-09T00:20:48;12.20;;;8.85;;
22024;SDS011;11176;51.448;6.650;2023-05-09T00:23:15;12.32;;;10.25;;
22024;SDS011;11176;51.448;6.650;2023-05-09T00:25:42;11.70;;;10.10;;
22024;SDS011;11176;51.448;6.650;2023-05-09T00:28:08;11.10;;;9.70;;
22024;SDS011;11176;51.448;6.650;2023-05-09T00:30:35;12.55;;;9.25;;
22024;SDS011;11176;51.448;6.650;2023-05-09T00:33:01;12.30;;;10.32;;
22024;SDS011;11176;51.448;6.650;2023-05-09T00:35:28;14.32;;;11.40;;
22024;SDS011;11176;51.448;6.650;2023-05-09T00:37:57;16.45;;;10.82;;
22024;SDS011;11176;51.448;6.650;2023-05-09T00:40:24;13.55;;;10.10;;
22024;SDS011;11176;51.448;6.650;2023-05-09T00:42:51;13.02;;;10.27;;
22024;SDS011;11176;51.448;6.650;2023-05-09T00:45:17;16.05;;;10.75;;
22024;SDS011;11176;51.448;6.650;2023-05-09T00:47:44;14.38;;;11.10;;
22024;SDS011;11176;51.448;6.650;2023-05-09T00:50:10;14.93;;;11.00;;
22024;SDS011;11176;51.448;6.650;2023-05-09T00:52:37;14.93;;;11.82;;
22024;SDS011;11176;51.448;6.650;2023-05-09T00:55:04;15.52;;;11.68;;
22024;SDS011;11176;51.448;6.650;2023-05-09T00:57:33;15.32;;;11.07;;
22024;SDS011;11176;51.448;6.650;2023-05-09T01:00:00;12.15;;;10.55;;
22024;SDS011;11176;51.448;6.650;2023-05-09T01:02:26;13.05;;;10.63;;
22024;SDS011;11176;51.448;6.650;2023-05-09T01:04:54;13.25;;;11.50;;
22024;SDS011;11176;51.448;6.650;2023-05-09T01:07:24;12.88;;;11.25;;
22024;SDS011;11176;51.448;6.650;2023-05-09T01:10:08;12.38;;;10.82;;
22024;SDS011;11176;51.448;6.650;2023-05-09T01:12:46;14.82;;;11.35;;
22024;SDS011;11176;51.448;6.650;2023-05-09T01:19:06;13.68;;;11.75;;
22024;SDS011;11176;51.448;6.650;2023-05-09T01:21:15;18.40;;;12.82;;
22024;SDS011;11176;51.448;6.650;2023-05-09T01:26:28;15.38;;;12.05;;
22024;SDS011;11176;51.448;6.650;2023-05-09T01:32:01;15.55;;;11.82;;
22024;SDS011;11176;51.448;6.650;2023-05-09T01:34:32;15.48;;;12.68;;
22024;SDS011;11176;51.448;6.650;2023-05-09T01:37:00;15.52;;;12.80;;
22024;SDS011;11176;51.448;6.650;2023-05-09T01:39:31;15.15;;;11.52;;
22024;SDS011;11176;51.448;6.650;2023-05-09T01:41:59;17.83;;;12.40;;
22024;SDS011;11176;51.448;6.650;2023-05-09T01:44:31;15.55;;;11.93;;
22024;SDS011;11176;51.448;6.650;2023-05-09T01:47:08;14.27;;;11.68;;
22024;SDS011;11176;51.448;6.650;2023-05-09T01:49:36;18.33;;;13.23;;
22024;SDS011;11176;51.448;6.650;2023-05-09T01:52:04;21.02;;;14.45;;
22024;SDS011;11176;51.448;6.650;2023-05-09T01:54:36;16.80;;;12.98;;
22024;SDS011;11176;51.448;6.650;2023-05-09T01:57:05;16.85;;;13.38;;
22024;SDS011;11176;51.448;6.650;2023-05-09T01:59:33;17.83;;;12.38;;
22024;SDS011;11176;51.448;6.650;2023-05-09T02:02:04;14.30;;;12.05;;
22024;SDS011;11176;51.448;6.650;2023-05-09T02:04:33;13.73;;;11.98;;
22024;SDS011;11176;51.448;6.650;2023-05-09T02:07:01;15.85;;;11.68;;
22024;SDS011;11176;51.448;6.650;2023-05-09T02:09:30;15.85;;;13.38;;
22024;SDS011;11176;51.448;6.650;2023-05-09T02:11:57;13.23;;;11.25;;
22024;SDS011;11176;51.448;6.650;2023-05-09T02:14:23;15.63;;;12.00;;
22024;SDS011;11176;51.448;6.650;2023-05-09T02:16:49;15.15;;;11.32;;
22024;SDS011;11176;51.448;6.650;2023-05-09T02:19:16;16.98;;;11.82;;
22024;SDS011;11176;51.448;6.650;2023-05-09T02:21:43;14.60;;;11.63;;
22024;SDS011;11176;51.448;6.650;2023-05-09T02:24:09;15.98;;;11.00;;
22024;SDS011;11176;51.448;6.650;2023-05-09T02:26:36;17.30;;;12.77;;
22024;SDS011;11176;51.448;6.650;2023-05-09T02:29:05;16.40;;;13.07;;
22024;SDS011;11176;51.448;6.650;2023-05-09T02:31:32;14.80;;;12.30;;
22024;SDS011;11176;51.448;6.650;2023-05-09T02:34:01;14.40;;;12.45;;
22024;SDS011;11176;51.448;6.650;2023-05-09T02:36:30;17.42;;;12.40;;
22024;SDS011;11176;51.448;6.650;2023-05-09T02:38:58;16.17;;;12.05;;
22024;SDS011;11176;51.448;6.650;2023-05-09T02:41:28;14.52;;;12.30;;
22024;SDS011;11176;51.448;6.650;2023-05-09T02:43:55;14.25;;;11.88;;
22024;SDS011;11176;51.448;6.650;2023-05-09T02:46:21;14.32;;;10.80;;
22024;SDS011;11176;51.448;6.650;2023-05-09T02:48:48;13.48;;;11.05;;
22024;SDS011;11176;51.448;6.650;2023-05-09T02:51:14;13.52;;;11.43;;
22024;SDS011;11176;51.448;6.650;2023-05-09T02:53:41;12.73;;;11.38;;
22024;SDS011;11176;51.448;6.650;2023-05-09T02:56:07;15.20;;;12.77;;
22024;SDS011;11176;51.448;6.650;2023-05-09T02:58:35;15.18;;;12.57;;
22024;SDS011;11176;51.448;6.650;2023-05-09T03:01:02;14.23;;;12.73;;
22024;SDS011;11176;51.448;6.650;2023-05-09T03:03:29;15.82;;;12.63;;
22024;SDS011;11176;51.448;6.650;2023-05-09T03:06:01;19.88;;;13.73;;
22024;SDS011;11176;51.448;6.650;2023-05-09T03:08:28;15.80;;;12.70;;
22024;SDS011;11176;51.448;6.650;2023-05-09T03:10:55;17.88;;;13.57;;
22024;SDS011;11176;51.448;6.650;2023-05-09T03:13:22;20.52;;;14.45;;
22024;SDS011;11176;51.448;6.650;2023-05-09T03:15:49;19.05;;;13.13;;
22024;SDS011;11176;51.448;6.650;2023-05-09T03:18:16;28.08;;;20.45;;
22024;SDS011;11176;51.448;6.650;2023-05-09T03:20:42;30.85;;;19.88;;
22024;SDS011;11176;51.448;6.650;2023-05-09T03:23:08;31.02;;;21.55;;
22024;SDS011;11176;51.448;6.650;2023-05-09T03:25:35;26.95;;;19.58;;
22024;SDS011;11176;51.448;6.650;2023-05-09T03:28:04;33.35;;;22.05;;
22024;SDS011;11176;51.448;6.650;2023-05-09T03:30:30;39.47;;;27.10;;
22024;SDS011;11176;51.448;6.650;2023-05-09T03:32:57;42.45;;;28.95;;
22024;SDS011;11176;51.448;6.650;2023-05-09T03:35:24;47.33;;;29.65;;
22024;SDS011;11176;51.448;6.650;2023-05-09T03:37:52;42.00;;;29.27;;
22024;SDS011;11176;51.448;6.650;2023-05-09T03:40:19;49.42;;;32.30;;
22024;SDS011;11176;51.448;6.650;2023-05-09T03:42:52;55.15;;;34.95;;
22024;SDS011;11176;51.448;6.650;2023-05-09T03:45:18;57.95;;;35.35;;
22024;SDS011;11176;51.448;6.650;2023-05-09T03:47:45;58.08;;;36.45;;
22024;SDS011;11176;51.448;6.650;2023-05-09T03:50:13;59.28;;;37.13;;
22024;SDS011;11176;51.448;6.650;2023-05-09T03:52:41;58.88;;;36.50;;
22024;SDS011;11176;51.448;6.650;2023-05-09T03:55:09;60.22;;;37.33;;
22024;SDS011;11176;51.448;6.650;2023-05-09T03:57:36;57.35;;;35.53;;
22024;SDS011;11176;51.448;6.650;2023-05-09T04:00:03;58.45;;;36.97;;
22024;SDS011;11176;51.448;6.650;2023-05-09T04:02:38;59.67;;;37.60;;
22024;SDS011;11176;51.448;6.650;2023-05-09T04:05:06;58.33;;;37.50;;
22024;SDS011;11176;51.448;6.650;2023-05-09T04:07:35;60.95;;;38.08;;
22024;SDS011;11176;51.448;6.650;2023-05-09T04:10:03;54.08;;;34.53;;
22024;SDS011;11176;51.448;6.650;2023-05-09T04:12:30;58.75;;;35.47;;
22024;SDS011;11176;51.448;6.650;2023-05-09T04:14:57;57.20;;;36.53;;
22024;SDS011;11176;51.448;6.650;2023-05-09T04:17:24;57.72;;;35.13;;
22024;SDS011;11176;51.448;6.650;2023-05-09T04:19:50;51.28;;;34.00;;
22024;SDS011;11176;51.448;6.650;2023-05-09T04:22:17;56.90;;;35.65;;
22024;SDS011;11176;51.448;6.650;2023-05-09T04:24:44;64.13;;;39.55;;
22024;SDS011;11176;51.448;6.650;2023-05-09T04:27:10;52.50;;;35.03;;
22024;SDS011;11176;51.448;6.650;2023-05-09T04:29:37;55.42;;;33.70;;
22024;SDS011;11176;51.448;6.650;2023-05-09T04:32:04;58.80;;;35.75;;
22024;SDS011;11176;51.448;6.650;2023-05-09T04:34:30;52.08;;;33.00;;
22024;SDS011;11176;51.448;6.650;2023-05-09T04:37:02;54.45;;;33.30;;
22024;SDS011;11176;51.448;6.650;2023-05-09T04:39:29;54.35;;;34.65;;
22024;SDS011;11176;51.448;6.650;2023-05-09T04:42:04;54.75;;;33.65;;
22024;SDS011;11176;51.448;6.650;2023-05-09T04:44:31;56.92;;;37.33;;
22024;SDS011;11176;51.448;6.650;2023-05-09T04:46:58;59.33;;;36.55;;
22024;SDS011;11176;51.448;6.650;2023-05-09T04:49:26;57.42;;;36.97;;
22024;SDS011;11176;51.448;6.650;2023-05-09T04:51:52;60.88;;;36.60;;
22024;SDS011;11176;51.448;6.650;2023-05-09T04:54:19;61.47;;;37.35;;
22024;SDS011;11176;51.448;6.650;2023-05-09T04:56:49;59.00;;;36.65;;
22024;SDS011;11176;51.448;6.650;2023-05-09T04:59:16;56.42;;;35.67;;
22024;SDS011;11176;51.448;6.650;2023-05-09T05:01:44;58.83;;;35.75;;
22024;SDS011;11176;51.448;6.650;2023-05-09T05:04:11;59.90;;;35.85;;
22024;SDS011;11176;51.448;6.650;2023-05-09T05:06:38;60.20;;;38.30;;
22024;SDS011;11176;51.448;6.650;2023-05-09T05:09:05;63.38;;;38.58;;
22024;SDS011;11176;51.448;6.650;2023-05-09T05:11:32;56.45;;;36.63;;
22024;SDS011;11176;51.448;6.650;2023-05-09T05:13:58;60.45;;;36.78;;
22024;SDS011;11176;51.448;6.650;2023-05-09T05:16:25;58.10;;;37.28;;
22024;SDS011;11176;51.448;6.650;2023-05-09T05:18:52;56.15;;;35.25;;
22024;SDS011;11176;51.448;6.650;2023-05-09T05:21:19;57.53;;;35.83;;
22024;SDS011;11176;51.448;6.650;2023-05-09T05:23:47;53.42;;;34.03;;
22024;SDS011;11176;51.448;6.650;2023-05-09T05:26:14;52.78;;;33.70;;
22024;SDS011;11176;51.448;6.650;2023-05-09T05:28:41;53.47;;;32.72;;
22024;SDS011;11176;51.448;6.650;2023-05-09T05:31:07;50.08;;;33.15;;
22024;SDS011;11176;51.448;6.650;2023-05-09T05:33:34;51.13;;;32.58;;
22024;SDS011;11176;51.448;6.650;2023-05-09T05:36:01;51.88;;;32.17;;
22024;SDS011;11176;51.448;6.650;2023-05-09T05:38:27;52.47;;;32.63;;
22024;SDS011;11176;51.448;6.650;2023-05-09T05:40:56;45.33;;;30.42;;
22024;SDS011;11176;51.448;6.650;2023-05-09T05:43:23;46.95;;;27.83;;
22024;SDS011;11176;51.448;6.650;2023-05-09T05:45:50;42.88;;;26.70;;
22024;SDS011;11176;51.448;6.650;2023-05-09T05:48:20;45.67;;;27.83;;
22024;SDS011;11176;51.448;6.650;2023-05-09T05:50:47;41.63;;;26.45;;
22024;SDS011;11176;51.448;6.650;2023-05-09T05:53:16;41.55;;;27.60;;
22024;SDS011;11176;51.448;6.650;2023-05-09T05:55:42;39.50;;;25.63;;
22024;SDS011;11176;51.448;6.650;2023-05-09T05:58:11;35.38;;;25.27;;
22024;SDS011;11176;51.448;6.650;2023-05-09T06:00:38;39.33;;;25.33;;
22024;SDS011;11176;51.448;6.650;2023-05-09T06:03:06;41.45;;;26.20;;
22024;SDS011;11176;51.448;6.650;2023-05-09T06:05:48;30.95;;;22.17;;
22024;SDS011;11176;51.448;6.650;2023-05-09T06:08:14;36.28;;;24.15;;
22024;SDS011;11176;51.448;6.650;2023-05-09T06:10:41;32.08;;;22.45;;
22024;SDS011;11176;51.448;6.650;2023-05-09T06:13:07;35.53;;;23.73;;
22024;SDS011;11176;51.448;6.650;2023-05-09T06:15:37;34.28;;;22.67;;
22024;SDS011;11176;51.448;6.650;2023-05-09T06:18:03;36.58;;;23.63;;
22024;SDS011;11176;51.448;6.650;2023-05-09T06:20:30;35.60;;;23.27;;
22024;SDS011;11176;51.448;6.650;2023-05-09T06:22:56;36.83;;;24.02;;
22024;SDS011;11176;51.448;6.650;2023-05-09T06:25:23;36.25;;;24.30;;
22024;SDS011;11176;51.448;6.650;2023-05-09T06:27:50;37.15;;;23.75;;
22024;SDS011;11176;51.448;6.650;2023-05-09T06:30:16;34.83;;;24.02;;
22024;SDS011;11176;51.448;6.650;2023-05-09T06:32:52;38.00;;;24.60;;
22024;SDS011;11176;51.448;6.650;2023-05-09T06:35:19;38.40;;;24.33;;
22024;SDS011;11176;51.448;6.650;2023-05-09T06:37:46;42.30;;;25.17;;
22024;SDS011;11176;51.448;6.650;2023-05-09T06:40:14;38.30;;;23.52;;
22024;SDS011;11176;51.448;6.650;2023-05-09T06:42:41;47.03;;;26.52;;
22024;SDS011;11176;51.448;6.650;2023-05-09T06:45:08;49.17;;;28.08;;
22024;SDS011;11176;51.448;6.650;2023-05-09T06:47:35;53.78;;;30.08;;
22024;SDS011;11176;51.448;6.650;2023-05-09T06:50:02;50.90;;;29.50;;
22024;SDS011;11176;51.448;6.650;2023-05-09T06:52:28;48.03;;;28.45;;
22024;SDS011;11176;51.448;6.650;2023-05-09T06:54:55;46.58;;;28.13;;
22024;SDS011;11176;51.448;6.650;2023-05-09T06:57:21;49.67;;;29.48;;
22024;SDS011;11176;51.448;6.650;2023-05-09T06:59:48;56.55;;;32.92;;
22024;SDS011;11176;51.448;6.650;2023-05-09T07:02:14;56.45;;;32.53;;
22024;SDS011;11176;51.448;6.650;2023-05-09T07:04:41;46.40;;;27.25;;
22024;SDS011;11176;51.448;6.650;2023-05-09T07:07:08;50.80;;;30.45;;
22024;SDS011;11176;51.448;6.650;2023-05-09T07:09:35;47.20;;;28.67;;
22024;SDS011;11176;51.448;6.650;2023-05-09T07:12:02;38.08;;;24.10;;
22024;SDS011;11176;51.448;6.650;2023-05-09T07:14:29;40.78;;;24.00;;
22024;SDS011;11176;51.448;6.650;2023-05-09T07:16:56;34.40;;;22.75;;
22024;SDS011;11176;51.448;6.650;2023-05-09T07:19:42;38.03;;;25.27;;
22024;SDS011;11176;51.448;6.650;2023-05-09T07:22:08;33.42;;;21.88;;
22024;SDS011;11176;51.448;6.650;2023-05-09T07:24:35;21.98;;;12.23;;
22024;SDS011;11176;51.448;6.650;2023-05-09T07:27:02;20.58;;;13.13;;
22024;SDS011;11176;51.448;6.650;2023-05-09T07:29:28;24.08;;;16.88;;
22024;SDS011;11176;51.448;6.650;2023-05-09T07:31:55;17.85;;;13.52;;
22024;SDS011;11176;51.448;6.650;2023-05-09T07:34:21;20.00;;;16.15;;
22024;SDS011;11176;51.448;6.650;2023-05-09T07:36:50;22.17;;;17.45;;
22024;SDS011;11176;51.448;6.650;2023-05-09T07:39:16;24.33;;;17.60;;
22024;SDS011;11176;51.448;6.650;2023-05-09T07:41:43;21.08;;;16.42;;
22024;SDS011;11176;51.448;6.650;2023-05-09T07:44:09;27.48;;;18.23;;
22024;SDS011;11176;51.448;6.650;2023-05-09T07:46:36;23.15;;;16.50;;
22024;SDS011;11176;51.448;6.650;2023-05-09T07:49:03;26.70;;;21.63;;
22024;SDS011;11176;51.448;6.650;2023-05-09T07:51:30;26.52;;;20.63;;
22024;SDS011;11176;51.448;6.650;2023-05-09T07:53:57;23.50;;;18.10;;
22024;SDS011;11176;51.448;6.650;2023-05-09T07:56:23;31.75;;;21.98;;
22024;SDS011;11176;51.448;6.650;2023-05-09T07:58:51;24.23;;;18.13;;
22024;SDS011;11176;51.448;6.650;2023-05-09T08:01:20;24.30;;;19.75;;
22024;SDS011;11176;51.448;6.650;2023-05-09T08:03:47;24.33;;;18.40;;
22024;SDS011;11176;51.448;6.650;2023-05-09T08:06:13;24.65;;;18.92;;
22024;SDS011;11176;51.448;6.650;2023-05-09T08:08:40;25.17;;;18.30;;
22024;SDS011;11176;51.448;6.650;2023-05-09T08:11:07;26.17;;;18.73;;
22024;SDS011;11176;51.448;6.650;2023-05-09T08:13:33;21.08;;;16.23;;
22024;SDS011;11176;51.448;6.650;2023-05-09T08:16:00;19.00;;;15.38;;
22024;SDS011;11176;51.448;6.650;2023-05-09T08:18:27;20.75;;;15.82;;
22024;SDS011;11176;51.448;6.650;2023-05-09T08:20:53;20.88;;;15.82;;
22024;SDS011;11176;51.448;6.650;2023-05-09T08:23:20;17.77;;;14.15;;
22024;SDS011;11176;51.448;6.650;2023-05-09T08:25:46;19.83;;;14.82;;
22024;SDS011;11176;51.448;6.650;2023-05-09T08:28:17;16.92;;;13.55;;
22024;SDS011;11176;51.448;6.650;2023-05-09T08:30:44;20.02;;;14.88;;
22024;SDS011;11176;51.448;6.650;2023-05-09T08:33:10;16.33;;;12.27;;
22024;SDS011;11176;51.448;6.650;2023-05-09T08:35:37;16.23;;;12.70;;
22024;SDS011;11176;51.448;6.650;2023-05-09T08:38:03;15.65;;;11.07;;
22024;SDS011;11176;51.448;6.650;2023-05-09T08:40:30;15.32;;;10.52;;
22024;SDS011;11176;51.448;6.650;2023-05-09T08:43:01;14.63;;;10.25;;
22024;SDS011;11176;51.448;6.650;2023-05-09T08:45:31;13.02;;;10.63;;
22024;SDS011;11176;51.448;6.650;2023-05-09T08:48:10;11.50;;;7.63;;
22024;SDS011;11176;51.448;6.650;2023-05-09T08:50:38;10.40;;;7.32;;
22024;SDS011;11176;51.448;6.650;2023-05-09T08:53:05;12.95;;;8.32;;
22024;SDS011;11176;51.448;6.650;2023-05-09T08:55:32;11.43;;;7.95;;
22024;SDS011;11176;51.448;6.650;2023-05-09T08:57:59;10.45;;;7.35;;
22024;SDS011;11176;51.448;6.650;2023-05-09T09:00:25;12.13;;;8.63;;
22024;SDS011;11176;51.448;6.650;2023-05-09T09:02:53;9.98;;;8.05;;
22024;SDS011;11176;51.448;6.650;2023-05-09T09:05:22;9.82;;;7.60;;
22024;SDS011;11176;51.448;6.650;2023-05-09T09:08:07;12.50;;;7.35;;
22024;SDS011;11176;51.448;6.650;2023-05-09T09:10:34;9.43;;;6.70;;
22024;SDS011;11176;51.448;6.650;2023-05-09T09:13:04;9.40;;;7.15;;
22024;SDS011;11176;51.448;6.650;2023-05-09T09:15:35;9.82;;;6.85;;
22024;SDS011;11176;51.448;6.650;2023-05-09T09:18:06;10.63;;;7.45;;
22024;SDS011;11176;51.448;6.650;2023-05-09T09:20:36;11.07;;;6.82;;
22024;SDS011;11176;51.448;6.650;2023-05-09T09:23:10;8.57;;;6.07;;
22024;SDS011;11176;51.448;6.650;2023-05-09T09:25:38;8.02;;;4.90;;
22024;SDS011;11176;51.448;6.650;2023-05-09T09:28:05;6.70;;;4.68;;
22024;SDS011;11176;51.448;6.650;2023-05-09T09:30:31;10.00;;;5.22;;
22024;SDS011;11176;51.448;6.650;2023-05-09T09:32:58;9.55;;;4.47;;
22024;SDS011;11176;51.448;6.650;2023-05-09T09:35:25;8.48;;;4.50;;
22024;SDS011;11176;51.448;6.650;2023-05-09T09:37:55;9.30;;;4.80;;
22024;SDS011;11176;51.448;6.650;2023-05-09T09:40:25;6.85;;;4.00;;
22024;SDS011;11176;51.448;6.650;2023-05-09T09:42:52;7.03;;;4.63;;
22024;SDS011;11176;51.448;6.650;2023-05-09T09:45:18;5.78;;;4.05;;
22024;SDS011;11176;51.448;6.650;2023-05-09T09:47:46;8.95;;;3.53;;
22024;SDS011;11176;51.448;6.650;2023-05-09T09:50:14;5.80;;;3.42;;
22024;SDS011;11176;51.448;6.650;2023-05-09T09:52:52;7.88;;;3.88;;
22024;SDS011;11176;51.448;6.650;2023-05-09T09:55:21;6.57;;;3.65;;
22024;SDS011;11176;51.448;6.650;2023-05-09T09:57:49;6.47;;;3.38;;
22024;SDS011;11176;51.448;6.650;2023-05-09T10:00:26;6.53;;;3.58;;
22024;SDS011;11176;51.448;6.650;2023-05-09T10:02:54;9.93;;;4.20;;
22024;SDS011;11176;51.448;6.650;2023-05-09T10:05:22;5.13;;;3.28;;
22024;SDS011;11176;51.448;6.650;2023-05-09T10:07:53;6.85;;;3.33;;
22024;SDS011;11176;51.448;6.650;2023-05-09T10:10:28;4.90;;;2.97;;
22024;SDS011;11176;51.448;6.650;2023-05-09T10:15:35;5.85;;;2.50;;
22024;SDS011;11176;51.448;6.650;2023-05-09T10:18:19;4.78;;;2.80;;
22024;SDS011;11176;51.448;6.650;2023-05-09T10:20:52;5.65;;;2.95;;
22024;SDS011;11176;51.448;6.650;2023-05-09T10:23:20;4.80;;;2.67;;
22024;SDS011;11176;51.448;6.650;2023-05-09T10:25:53;5.97;;;3.83;;
22024;SDS011;11176;51.448;6.650;2023-05-09T10:28:29;5.97;;;2.83;;
22024;SDS011;11176;51.448;6.650;2023-05-09T10:31:03;3.50;;;2.22;;
22024;SDS011;11176;51.448;6.650;2023-05-09T10:33:41;6.43;;;2.40;;
22024;SDS011;11176;51.448;6.650;2023-05-09T10:36:14;5.50;;;2.67;;
22024;SDS011;11176;51.448;6.650;2023-05-09T10:38:42;4.05;;;2.30;;
22024;SDS011;11176;51.448;6.650;2023-05-09T10:41:09;5.00;;;2.03;;
22024;SDS011;11176;51.448;6.650;2023-05-09T10:43:37;4.47;;;2.30;;
22024;SDS011;11176;51.448;6.650;2023-05-09T10:46:04;4.55;;;2.63;;
22024;SDS011;11176;51.448;6.650;2023-05-09T10:48:32;4.93;;;2.45;;
22024;SDS011;11176;51.448;6.650;2023-05-09T10:50:59;7.28;;;2.30;;
22024;SDS011;11176;51.448;6.650;2023-05-09T10:53:39;6.20;;;2.78;;
22024;SDS011;11176;51.448;6.650;2023-05-09T10:56:05;6.80;;;2.83;;
22024;SDS011;11176;51.448;6.650;2023-05-09T10:58:32;5.07;;;2.70;;
22024;SDS011;11176;51.448;6.650;2023-05-09T11:01:02;4.20;;;2.00;;
22024;SDS011;11176;51.448;6.650;2023-05-09T11:03:51;5.15;;;1.95;;
22024;SDS011;11176;51.448;6.650;2023-05-09T11:24:44;4.60;;;2.70;;
22024;SDS011;11176;51.448;6.650;2023-05-09T11:27:22;7.38;;;4.00;;
22024;SDS011;11176;51.448;6.650;2023-05-09T11:29:56;7.65;;;4.13;;
22024;SDS011;11176;51.448;6.650;2023-05-09T11:32:29;8.85;;;4.13;;
22024;SDS011;11176;51.448;6.650;2023-05-09T11:35:06;6.13;;;3.90;;
22024;SDS011;11176;51.448;6.650;2023-05-09T11:40:14;9.70;;;4.30;;
22024;SDS011;11176;51.448;6.650;2023-05-09T11:42:44;12.40;;;4.00;;
22024;SDS011;11176;51.448;6.650;2023-05-09T11:45:14;5.93;;;3.60;;
22024;SDS011;11176;51.448;6.650;2023-05-09T11:47:42;6.75;;;3.45;;
22024;SDS011;11176;51.448;6.650;2023-05-09T11:50:11;7.07;;;3.70;;
22024;SDS011;11176;51.448;6.650;2023-05-09T11:52:39;4.68;;;3.20;;
22024;SDS011;11176;51.448;6.650;2023-05-09T11:55:08;6.40;;;4.15;;
22024;SDS011;11176;51.448;6.650;2023-05-09T11:57:38;7.07;;;3.42;;
22024;SDS011;11176;51.448;6.650;2023-05-09T12:00:06;4.97;;;3.72;;
22024;SDS011;11176;51.448;6.650;2023-05-09T12:02:35;7.35;;;4.30;;
22024;SDS011;11176;51.448;6.650;2023-05-09T12:05:09;5.15;;;3.80;;
22024;SDS011;11176;51.448;6.650;2023-05-09T12:07:38;4.57;;;3.67;;
22024;SDS011;11176;51.448;6.650;2023-05-09T12:10:06;9.15;;;5.00;;
22024;SDS011;11176;51.448;6.650;2023-05-09T12:12:41;5.43;;;3.53;;
22024;SDS011;11176;51.448;6.650;2023-05-09T12:15:09;7.45;;;4.32;;
22024;SDS011;11176;51.448;6.650;2023-05-09T12:17:39;7.22;;;5.07;;
22024;SDS011;11176;51.448;6.650;2023-05-09T12:20:09;5.88;;;4.30;;
22024;SDS011;11176;51.448;6.650;2023-05-09T12:22:36;8.75;;;5.72;;
22024;SDS011;11176;51.448;6.650;2023-05-09T12:25:06;11.82;;;5.50;;
22024;SDS011;11176;51.448;6.650;2023-05-09T12:27:35;8.43;;;5.33;;
22024;SDS011;11176;51.448;6.650;2023-05-09T12:30:04;11.35;;;7.20;;
22024;SDS011;11176;51.448;6.650;2023-05-09T12:32:41;12.27;;;7.03;;
22024;SDS011;11176;51.448;6.650;2023-05-09T12:35:08;9.38;;;7.05;;
22024;SDS011;11176;51.448;6.650;2023-05-09T12:37:36;8.60;;;6.80;;
22024;SDS011;11176;51.448;6.650;2023-05-09T12:40:03;10.05;;;6.97;;
22024;SDS011;11176;51.448;6.650;2023-05-09T12:42:32;8.00;;;6.43;;
22024;SDS011;11176;51.448;6.650;2023-05-09T12:45:00;12.10;;;6.68;;
22024;SDS011;11176;51.448;6.650;2023-05-09T12:47:28;12.50;;;7.82;;
22024;SDS011;11176;51.448;6.650;2023-05-09T12:50:00;11.40;;;6.90;;
22024;SDS011;11176;51.448;6.650;2023-05-09T12:52:38;13.57;;;7.60;;
22024;SDS011;11176;51.448;6.650;2023-05-09T12:55:24;13.30;;;8.70;;
22024;SDS011;11176;51.448;6.650;2023-05-09T12:58:00;12.38;;;7.60;;
22024;SDS011;11176;51.448;6.650;2023-05-09T13:00:28;19.08;;;9.00;;
22024;SDS011;11176;51.448;6.650;2023-05-09T13:03:28;12.07;;;9.35;;
22024;SDS011;11176;51.448;6.650;2023-05-09T13:05:57;15.43;;;9.13;;
22024;SDS011;11176;51.448;6.650;2023-05-09T13:08:27;11.38;;;9.45;;
22024;SDS011;11176;51.448;6.650;2023-05-09T13:10:54;12.80;;;9.52;;
22024;SDS011;11176;51.448;6.650;2023-05-09T13:13:33;11.65;;;9.20;;
22024;SDS011;11176;51.448;6.650;2023-05-09T13:15:59;14.77;;;11.60;;
22024;SDS011;11176;51.448;6.650;2023-05-09T13:18:29;14.55;;;10.75;;
22024;SDS011;11176;51.448;6.650;2023-05-09T13:20:55;12.40;;;9.98;;
22024;SDS011;11176;51.448;6.650;2023-05-09T13:23:22;14.35;;;10.45;;
22024;SDS011;11176;51.448;6.650;2023-05-09T13:25:49;17.23;;;12.60;;
22024;SDS011;11176;51.448;6.650;2023-05-09T13:28:16;16.75;;;10.88;;
22024;SDS011;11176;51.448;6.650;2023-05-09T13:30:42;15.13;;;11.15;;
22024;SDS011;11176;51.448;6.650;2023-05-09T13:33:10;14.48;;;11.48;;
22024;SDS011;11176;51.448;6.650;2023-05-09T13:35:51;17.00;;;12.45;;
22024;SDS011;11176;51.448;6.650;2023-05-09T13:38:17;19.02;;;12.60;;
22024;SDS011;11176;51.448;6.650;2023-05-09T13:40:44;15.80;;;11.30;;
22024;SDS011;11176;51.448;6.650;2023-05-09T13:43:10;16.13;;;13.05;;
22024;SDS011;11176;51.448;6.650;2023-05-09T13:45:37;17.77;;;13.43;;
22024;SDS011;11176;51.448;6.650;2023-05-09T13:48:03;18.25;;;13.35;;
22024;SDS011;11176;51.448;6.650;2023-05-09T13:50:30;16.45;;;13.57;;
22024;SDS011;11176;51.448;6.650;2023-05-09T13:52:56;17.63;;;14.23;;
22024;SDS011;11176;51.448;6.650;2023-05-09T13:55:23;18.98;;;13.32;;
22024;SDS011;11176;51.448;6.650;2023-05-09T13:57:52;17.52;;;13.80;;
22024;SDS011;11176;51.448;6.650;2023-05-09T14:00:18;15.65;;;13.40;;
22024;SDS011;11176;51.448;6.650;2023-05-09T14:02:46;14.43;;;11.88;;
22024;SDS011;11176;51.448;6.650;2023-05-09T14:05:14;15.88;;;13.15;;
22024;SDS011;11176;51.448;6.650;2023-05-09T14:07:42;17.60;;;13.77;;
22024;SDS011;11176;51.448;6.650;2023-05-09T14:10:08;15.98;;;12.48;;
22024;SDS011;11176;51.448;6.650;2023-05-09T14:12:38;14.77;;;12.23;;
22024;SDS011;11176;51.448;6.650;2023-05-09T14:15:05;12.80;;;11.38;;
22024;SDS011;11176;51.448;6.650;2023-05-09T14:17:32;14.32;;;12.25;;
22024;SDS011;11176;51.448;6.650;2023-05-09T14:19:59;15.82;;;13.05;;
22024;SDS011;11176;51.448;6.650;2023-05-09T14:22:26;13.77;;;12.25;;
22024;SDS011;11176;51.448;6.650;2023-05-09T14:24:53;16.85;;;13.23;;
22024;SDS011;11176;51.448;6.650;2023-05-09T14:27:21;13.38;;;11.20;;
22024;SDS011;11176;51.448;6.650;2023-05-09T14:29:48;12.27;;;10.93;;
22024;SDS011;11176;51.448;6.650;2023-05-09T14:32:14;10.82;;;9.73;;
22024;SDS011;11176;51.448;6.650;2023-05-09T14:34:41;9.73;;;8.65;;
22024;SDS011;11176;51.448;6.650;2023-05-09T14:37:07;7.47;;;6.65;;
22024;SDS011;11176;51.448;6.650;2023-05-09T14:39:39;7.80;;;6.15;;
22024;SDS011;11176;51.448;6.650;2023-05-09T14:42:07;6.20;;;5.60;;
22024;SDS011;11176;51.448;6.650;2023-05-09T14:44:36;11.00;;;6.15;;
22024;SDS011;11176;51.448;6.650;2023-05-09T14:47:03;6.72;;;4.85;;
22024;SDS011;11176;51.448;6.650;2023-05-09T14:49:30;6.55;;;5.35;;
22024;SDS011;11176;51.448;6.650;2023-05-09T14:51:57;6.65;;;5.22;;
22024;SDS011;11176;51.448;6.650;2023-05-09T14:54:23;6.05;;;5.00;;
22024;SDS011;11176;51.448;6.650;2023-05-09T14:56:50;6.40;;;5.45;;
22024;SDS011;11176;51.448;6.650;2023-05-09T14:59:16;6.07;;;5.47;;
22024;SDS011;11176;51.448;6.650;2023-05-09T15:01:43;6.20;;;5.00;;
22024;SDS011;11176;51.448;6.650;2023-05-09T15:04:10;5.90;;;5.30;;
22024;SDS011;11176;51.448;6.650;2023-05-09T15:06:37;5.38;;;4.80;;
22024;SDS011;11176;51.448;6.650;2023-05-09T15:09:04;6.13;;;5.38;;